sensor_id;sensor_type;location;lat;lon;timestamp;pressure;altitude;pressure_sealevel;temperature;humidity
28267;BME280;15525;45.568;5.448;2023-08-06T00:00:22;97876.72;;;21.69;50.47
28267;BME280;15525;45.568;5.448;2023-08-06T00:02:49;97850.69;;;21.44;51.19
28267;BME280;15525;45.568;5.448;2023-08-06T00:05:15;97876.44;;;21.46;51.35
28267;BME280;15525;45.568;5.448;2023-08-06T00:07:49;97866.56;;;21.42;51.70
28267;BME280;15525;45.568;5.448;2023-08-06T00:10:15;97864.97;;;21.53;51.29
28267;BME280;15525;45.568;5.448;2023-08-06T00:12:41;97874.47;;;21.59;51.27
28267;BME280;15525;45.568;5.448;2023-08-06T00:15:06;97874.25;;;21.52;51.64
28267;BME280;15525;45.568;5.448;2023-08-06T00:17:33;97862.84;;;21.34;51.62
28267;BME280;15525;45.568;5.448;2023-08-06T00:19:59;97850.78;;;21.35;51.79
28267;BME280;15525;45.568;5.448;2023-08-06T00:22:29;97867.13;;;21.47;52.22
28267;BME280;15525;45.568;5.448;2023-08-06T00:24:55;97847.97;;;21.32;51.95
28267;BME280;15525;45.568;5.448;2023-08-06T00:27:22;97871.34;;;21.45;52.35
28267;BME280;15525;45.568;5.448;2023-08-06T00:29:48;97866.31;;;21.47;52.24
28267;BME280;15525;45.568;5.448;2023-08-06T00:32:13;97830.41;;;21.17;52.60
28267;BME280;15525;45.568;5.448;2023-08-06T00:34:38;97834.59;;;21.27;52.17
28267;BME280;15525;45.568;5.448;2023-08-06T00:37:04;97864.59;;;21.54;52.18
28267;BME280;15525;45.568;5.448;2023-08-06T00:39:29;97864.16;;;21.52;52.32
28267;BME280;15525;45.568;5.448;2023-08-06T00:41:55;97856.34;;;21.51;52.38
28267;BME280;15525;45.568;5.448;2023-08-06T00:44:20;97848.41;;;21.46;52.26
28267;BME280;15525;45.568;5.448;2023-08-06T00:46:46;97858.28;;;21.38;52.74
28267;BME280;15525;45.568;5.448;2023-08-06T00:49:12;97858.38;;;21.42;52.38
28267;BME280;15525;45.568;5.448;2023-08-06T00:51:37;97871.91;;;21.50;52.59
28267;BME280;15525;45.568;5.448;2023-08-06T00:54:03;97868.81;;;21.52;52.53
28267;BME280;15525;45.568;5.448;2023-08-06T00:56:29;97857.81;;;21.48;52.46
28267;BME280;15525;45.568;5.448;2023-08-06T00:58:54;97874.97;;;21.37;52.98
28267;BME280;15525;45.568;5.448;2023-08-06T01:01:20;97864.31;;;21.32;52.95
28267;BME280;15525;45.568;5.448;2023-08-06T01:03:46;97871.47;;;21.36;52.92
28267;BME280;15525;45.568;5.448;2023-08-06T01:06:11;97862.25;;;21.29;53.30
28267;BME280;15525;45.568;5.448;2023-08-06T01:09:01;97875.34;;;21.23;53.80
28267;BME280;15525;45.568;5.448;2023-08-06T01:16:46;97871.25;;;21.29;53.50
28267;BME280;15525;45.568;5.448;2023-08-06T01:19:17;97874.78;;;21.18;53.75
28267;BME280;15525;45.568;5.448;2023-08-06T01:21:43;97882.59;;;21.19;53.66
28267;BME280;15525;45.568;5.448;2023-08-06T01:24:08;97865.59;;;21.10;53.33
28267;BME280;15525;45.568;5.448;2023-08-06T01:29:41;97862.72;;;21.31;53.26
28267;BME280;15525;45.568;5.448;2023-08-06T01:32:10;97884.72;;;21.38;52.70
28267;BME280;15525;45.568;5.448;2023-08-06T01:34:39;97877.69;;;21.37;52.79
28267;BME280;15525;45.568;5.448;2023-08-06T01:37:05;97869.31;;;21.30;52.85
28267;BME280;15525;45.568;5.448;2023-08-06T01:39:34;97890.19;;;21.26;53.01
28267;BME280;15525;45.568;5.448;2023-08-06T01:41:59;97852.31;;;20.97;53.38
28267;BME280;15525;45.568;5.448;2023-08-06T01:44:25;97844.13;;;20.97;53.67
28267;BME280;15525;45.568;5.448;2023-08-06T01:46:50;97884.28;;;21.24;53.39
28267;BME280;15525;45.568;5.448;2023-08-06T01:49:15;97877.94;;;21.08;53.59
28267;BME280;15525;45.568;5.448;2023-08-06T01:51:41;97883.16;;;21.01;53.67
28267;BME280;15525;45.568;5.448;2023-08-06T01:54:06;97891.56;;;21.08;54.16
28267;BME280;15525;45.568;5.448;2023-08-06T01:56:32;97877.38;;;21.02;54.29
28267;BME280;15525;45.568;5.448;2023-08-06T01:58:57;97869.44;;;20.97;54.36
28267;BME280;15525;45.568;5.448;2023-08-06T02:01:23;97893.25;;;21.12;54.01
28267;BME280;15525;45.568;5.448;2023-08-06T02:03:48;97885.41;;;21.11;54.21
28267;BME280;15525;45.568;5.448;2023-08-06T02:06:13;97859.38;;;20.98;53.93
28267;BME280;15525;45.568;5.448;2023-08-06T02:08:39;97880.88;;;21.15;53.27
28267;BME280;15525;45.568;5.448;2023-08-06T02:11:05;97854.03;;;21.01;52.94
28267;BME280;15525;45.568;5.448;2023-08-06T02:13:30;97876.38;;;21.07;53.31
28267;BME280;15525;45.568;5.448;2023-08-06T02:15:56;97889.53;;;21.17;53.68
28267;BME280;15525;45.568;5.448;2023-08-06T02:18:21;97863.28;;;20.88;53.43
28267;BME280;15525;45.568;5.448;2023-08-06T02:20:57;97869.00;;;20.95;53.03
28267;BME280;15525;45.568;5.448;2023-08-06T02:23:22;97882.16;;;21.05;53.09
28267;BME280;15525;45.568;5.448;2023-08-06T02:25:48;97886.13;;;21.08;53.27
28267;BME280;15525;45.568;5.448;2023-08-06T02:28:13;97871.72;;;20.95;53.35
28267;BME280;15525;45.568;5.448;2023-08-06T02:30:38;97875.31;;;20.87;53.56
28267;BME280;15525;45.568;5.448;2023-08-06T02:33:04;97859.09;;;20.66;53.93
28267;BME280;15525;45.568;5.448;2023-08-06T02:35:29;97861.66;;;20.51;54.20
28267;BME280;15525;45.568;5.448;2023-08-06T02:37:55;97886.72;;;20.56;54.35
28267;BME280;15525;45.568;5.448;2023-08-06T02:40:20;97901.91;;;20.57;54.31
28267;BME280;15525;45.568;5.448;2023-08-06T02:42:46;97875.47;;;20.46;54.08
28267;BME280;15525;45.568;5.448;2023-08-06T02:45:11;97856.63;;;20.29;54.68
28267;BME280;15525;45.568;5.448;2023-08-06T02:47:36;97872.81;;;20.25;54.78
28267;BME280;15525;45.568;5.448;2023-08-06T02:50:02;97875.41;;;20.22;55.32
28267;BME280;15525;45.568;5.448;2023-08-06T02:52:27;97861.03;;;20.21;55.24
28267;BME280;15525;45.568;5.448;2023-08-06T02:54:53;97848.78;;;20.15;55.58
28267;BME280;15525;45.568;5.448;2023-08-06T02:57:18;97888.59;;;20.44;55.50
28267;BME280;15525;45.568;5.448;2023-08-06T02:59:43;97895.66;;;20.45;55.50
28267;BME280;15525;45.568;5.448;2023-08-06T03:02:09;97883.16;;;20.44;55.70
28267;BME280;15525;45.568;5.448;2023-08-06T03:04:34;97878.31;;;20.49;55.61
28267;BME280;15525;45.568;5.448;2023-08-06T03:07:00;97887.94;;;20.47;55.60
28267;BME280;15525;45.568;5.448;2023-08-06T03:09:25;97863.09;;;20.36;54.85
28267;BME280;15525;45.568;5.448;2023-08-06T03:11:50;97884.44;;;20.58;55.30
28267;BME280;15525;45.568;5.448;2023-08-06T03:14:16;97885.38;;;20.62;55.24
28267;BME280;15525;45.568;5.448;2023-08-06T03:16:41;97886.63;;;20.65;55.10
28267;BME280;15525;45.568;5.448;2023-08-06T03:19:07;97887.06;;;20.55;55.48
28267;BME280;15525;45.568;5.448;2023-08-06T03:21:32;97885.81;;;20.52;55.34
28267;BME280;15525;45.568;5.448;2023-08-06T03:23:58;97886.13;;;20.51;54.81
28267;BME280;15525;45.568;5.448;2023-08-06T03:26:23;97881.16;;;20.53;54.88
28267;BME280;15525;45.568;5.448;2023-08-06T03:28:48;97886.50;;;20.61;54.61
28267;BME280;15525;45.568;5.448;2023-08-06T03:31:14;97900.59;;;20.75;54.20
28267;BME280;15525;45.568;5.448;2023-08-06T03:33:39;97896.69;;;20.64;53.43
28267;BME280;15525;45.568;5.448;2023-08-06T03:36:05;97879.13;;;20.62;53.51
28267;BME280;15525;45.568;5.448;2023-08-06T03:38:31;97899.41;;;20.64;52.61
28267;BME280;15525;45.568;5.448;2023-08-06T03:40:56;97901.09;;;20.45;52.38
28267;BME280;15525;45.568;5.448;2023-08-06T03:43:22;97890.97;;;20.33;52.25
28267;BME280;15525;45.568;5.448;2023-08-06T03:45:47;97887.94;;;20.47;51.97
28267;BME280;15525;45.568;5.448;2023-08-06T03:48:12;97899.38;;;20.40;52.40
28267;BME280;15525;45.568;5.448;2023-08-06T03:50:38;97915.03;;;20.43;52.00
28267;BME280;15525;45.568;5.448;2023-08-06T03:53:04;97908.28;;;20.29;51.70
28267;BME280;15525;45.568;5.448;2023-08-06T03:55:29;97900.84;;;20.38;51.80
28267;BME280;15525;45.568;5.448;2023-08-06T03:57:55;97889.22;;;20.17;51.80
28267;BME280;15525;45.568;5.448;2023-08-06T04:00:20;97905.56;;;20.29;51.49
28267;BME280;15525;45.568;5.448;2023-08-06T04:02:46;97929.31;;;20.52;51.58
28267;BME280;15525;45.568;5.448;2023-08-06T04:05:11;97909.88;;;20.30;51.82
28267;BME280;15525;45.568;5.448;2023-08-06T04:07:37;97890.38;;;20.28;51.63
28267;BME280;15525;45.568;5.448;2023-08-06T04:10:04;97895.50;;;20.41;51.45
28267;BME280;15525;45.568;5.448;2023-08-06T04:12:30;97931.34;;;20.43;51.68
28267;BME280;15525;45.568;5.448;2023-08-06T04:14:57;97931.63;;;20.30;51.69
28267;BME280;15525;45.568;5.448;2023-08-06T04:17:23;97918.91;;;20.01;52.05
28267;BME280;15525;45.568;5.448;2023-08-06T04:19:53;97919.66;;;20.10;51.81
28267;BME280;15525;45.568;5.448;2023-08-06T04:22:19;97909.31;;;19.83;52.16
28267;BME280;15525;45.568;5.448;2023-08-06T04:24:44;97932.28;;;20.06;51.99
28267;BME280;15525;45.568;5.448;2023-08-06T04:27:10;97917.97;;;19.97;51.59
28267;BME280;15525;45.568;5.448;2023-08-06T04:29:37;97939.63;;;20.06;51.99
28267;BME280;15525;45.568;5.448;2023-08-06T04:32:08;97947.94;;;20.30;51.87
28267;BME280;15525;45.568;5.448;2023-08-06T04:34:34;97930.63;;;20.34;51.28
28267;BME280;15525;45.568;5.448;2023-08-06T04:37:00;97940.13;;;20.28;51.97
28267;BME280;15525;45.568;5.448;2023-08-06T04:39:26;97929.09;;;20.04;51.97
28267;BME280;15525;45.568;5.448;2023-08-06T04:41:52;97952.03;;;19.74;52.88
28267;BME280;15525;45.568;5.448;2023-08-06T04:44:17;97935.25;;;19.72;52.67
28267;BME280;15525;45.568;5.448;2023-08-06T04:46:43;97939.44;;;19.70;52.31
28267;BME280;15525;45.568;5.448;2023-08-06T04:49:08;97949.19;;;19.91;52.24
28267;BME280;15525;45.568;5.448;2023-08-06T04:51:34;97948.84;;;19.93;52.54
28267;BME280;15525;45.568;5.448;2023-08-06T04:53:59;97953.56;;;20.04;51.67
28267;BME280;15525;45.568;5.448;2023-08-06T04:56:25;97936.19;;;19.97;51.69
28267;BME280;15525;45.568;5.448;2023-08-06T04:58:50;97954.47;;;20.17;51.35
28267;BME280;15525;45.568;5.448;2023-08-06T05:01:16;97964.66;;;20.20;51.58
28267;BME280;15525;45.568;5.448;2023-08-06T05:03:41;97984.53;;;20.32;51.34
28267;BME280;15525;45.568;5.448;2023-08-06T05:06:07;97947.81;;;20.26;51.08
28267;BME280;15525;45.568;5.448;2023-08-06T05:08:32;97960.25;;;20.27;50.77
28267;BME280;15525;45.568;5.448;2023-08-06T05:10:58;97951.44;;;20.30;50.83
28267;BME280;15525;45.568;5.448;2023-08-06T05:13:23;97953.25;;;20.26;51.18
28267;BME280;15525;45.568;5.448;2023-08-06T05:15:49;97996.59;;;20.43;51.22
28267;BME280;15525;45.568;5.448;2023-08-06T05:18:14;97975.13;;;20.30;50.98
28267;BME280;15525;45.568;5.448;2023-08-06T05:20:41;97992.81;;;20.56;50.23
28267;BME280;15525;45.568;5.448;2023-08-06T05:23:06;97997.94;;;20.70;50.50
28267;BME280;15525;45.568;5.448;2023-08-06T05:25:32;97974.47;;;20.65;50.36
28267;BME280;15525;45.568;5.448;2023-08-06T05:27:59;97974.25;;;20.70;49.44
28267;BME280;15525;45.568;5.448;2023-08-06T05:30:26;98006.13;;;20.49;49.87
28267;BME280;15525;45.568;5.448;2023-08-06T05:32:52;97996.75;;;20.26;50.41
28267;BME280;15525;45.568;5.448;2023-08-06T05:35:17;98034.69;;;20.43;50.17
28267;BME280;15525;45.568;5.448;2023-08-06T05:37:43;98002.19;;;19.77;51.32
28267;BME280;15525;45.568;5.448;2023-08-06T05:40:08;98031.88;;;20.11;50.67
28267;BME280;15525;45.568;5.448;2023-08-06T05:42:34;98028.66;;;19.88;51.22
28267;BME280;15525;45.568;5.448;2023-08-06T05:44:59;98005.13;;;19.34;53.11
28267;BME280;15525;45.568;5.448;2023-08-06T05:47:24;98055.59;;;19.18;53.52
28267;BME280;15525;45.568;5.448;2023-08-06T05:49:50;98053.56;;;19.61;53.45
28267;BME280;15525;45.568;5.448;2023-08-06T05:52:15;98061.84;;;19.27;53.18
28267;BME280;15525;45.568;5.448;2023-08-06T05:54:41;98067.41;;;19.68;52.88
28267;BME280;15525;45.568;5.448;2023-08-06T05:57:06;98075.00;;;19.54;53.37
28267;BME280;15525;45.568;5.448;2023-08-06T05:59:32;98098.25;;;19.72;53.32
28267;BME280;15525;45.568;5.448;2023-08-06T06:01:57;98084.97;;;20.08;51.76
28267;BME280;15525;45.568;5.448;2023-08-06T06:04:22;98073.94;;;20.34;51.89
28267;BME280;15525;45.568;5.448;2023-08-06T06:06:48;98100.19;;;20.50;51.73
28267;BME280;15525;45.568;5.448;2023-08-06T06:09:13;98090.97;;;20.43;51.63
28267;BME280;15525;45.568;5.448;2023-08-06T06:11:39;98099.63;;;20.45;51.26
28267;BME280;15525;45.568;5.448;2023-08-06T06:14:04;98100.88;;;20.47;51.33
28267;BME280;15525;45.568;5.448;2023-08-06T06:16:30;98112.81;;;20.34;51.44
28267;BME280;15525;45.568;5.448;2023-08-06T06:18:55;98108.53;;;19.96;52.17
28267;BME280;15525;45.568;5.448;2023-08-06T06:21:23;98064.44;;;19.90;51.67
28267;BME280;15525;45.568;5.448;2023-08-06T06:23:48;98114.69;;;20.13;52.03
28267;BME280;15525;45.568;5.448;2023-08-06T06:26:14;98122.94;;;19.96;52.37
28267;BME280;15525;45.568;5.448;2023-08-06T06:28:39;98115.03;;;20.03;51.67
28267;BME280;15525;45.568;5.448;2023-08-06T06:31:04;98107.63;;;19.83;52.87
28267;BME280;15525;45.568;5.448;2023-08-06T06:33:30;98083.72;;;19.68;52.78
28267;BME280;15525;45.568;5.448;2023-08-06T06:35:55;98127.88;;;20.23;52.41
28267;BME280;15525;45.568;5.448;2023-08-06T06:38:21;98110.28;;;20.29;52.25
28267;BME280;15525;45.568;5.448;2023-08-06T06:40:58;98139.22;;;20.75;51.50
28267;BME280;15525;45.568;5.448;2023-08-06T06:43:24;98154.13;;;20.48;50.95
28267;BME280;15525;45.568;5.448;2023-08-06T06:45:53;98144.31;;;20.35;51.51
28267;BME280;15525;45.568;5.448;2023-08-06T06:48:21;98147.66;;;20.03;50.83
28267;BME280;15525;45.568;5.448;2023-08-06T06:50:47;98154.75;;;20.25;50.74
28267;BME280;15525;45.568;5.448;2023-08-06T06:53:13;98158.53;;;20.61;50.15
28267;BME280;15525;45.568;5.448;2023-08-06T06:55:39;98136.28;;;20.39;49.90
28267;BME280;15525;45.568;5.448;2023-08-06T06:58:04;98134.69;;;20.38;50.35
28267;BME280;15525;45.568;5.448;2023-08-06T07:00:29;98130.13;;;19.92;50.71
28267;BME280;15525;45.568;5.448;2023-08-06T07:02:55;98140.53;;;20.48;50.62
28267;BME280;15525;45.568;5.448;2023-08-06T07:05:20;98134.28;;;20.89;50.00
28267;BME280;15525;45.568;5.448;2023-08-06T07:07:46;98159.41;;;20.95;50.02
28267;BME280;15525;45.568;5.448;2023-08-06T07:10:11;98134.06;;;20.82;49.51
28267;BME280;15525;45.568;5.448;2023-08-06T07:12:36;98162.22;;;21.07;49.02
28267;BME280;15525;45.568;5.448;2023-08-06T07:15:05;98146.06;;;21.34;48.84
28267;BME280;15525;45.568;5.448;2023-08-06T07:17:31;98125.88;;;21.35;47.12
28267;BME280;15525;45.568;5.448;2023-08-06T07:19:56;98172.81;;;21.65;47.38
28267;BME280;15525;45.568;5.448;2023-08-06T07:22:21;98159.25;;;21.32;47.43
28267;BME280;15525;45.568;5.448;2023-08-06T07:24:47;98166.38;;;21.25;46.53
28267;BME280;15525;45.568;5.448;2023-08-06T07:27:12;98179.25;;;20.74;46.67
28267;BME280;15525;45.568;5.448;2023-08-06T07:29:38;98177.19;;;20.71;47.13
28267;BME280;15525;45.568;5.448;2023-08-06T07:32:03;98159.84;;;19.97;49.00
28267;BME280;15525;45.568;5.448;2023-08-06T07:34:29;98191.22;;;20.53;47.59
28267;BME280;15525;45.568;5.448;2023-08-06T07:36:54;98195.06;;;20.52;47.20
28267;BME280;15525;45.568;5.448;2023-08-06T07:39:19;98176.34;;;20.79;47.01
28267;BME280;15525;45.568;5.448;2023-08-06T07:41:45;98190.50;;;20.94;46.65
28267;BME280;15525;45.568;5.448;2023-08-06T07:44:11;98176.69;;;20.99;46.12
28267;BME280;15525;45.568;5.448;2023-08-06T07:46:36;98174.13;;;21.35;45.64
28267;BME280;15525;45.568;5.448;2023-08-06T07:49:03;98173.47;;;20.97;45.70
28267;BME280;15525;45.568;5.448;2023-08-06T07:51:28;98190.72;;;21.21;45.76
28267;BME280;15525;45.568;5.448;2023-08-06T07:53:54;98191.63;;;21.46;45.49
28267;BME280;15525;45.568;5.448;2023-08-06T07:56:19;98187.44;;;21.81;45.14
28267;BME280;15525;45.568;5.448;2023-08-06T07:58:45;98188.91;;;21.13;45.13
28267;BME280;15525;45.568;5.448;2023-08-06T08:01:10;98159.06;;;21.17;46.20
28267;BME280;15525;45.568;5.448;2023-08-06T08:03:35;98178.63;;;21.31;44.98
28267;BME280;15525;45.568;5.448;2023-08-06T08:06:01;98167.38;;;21.65;45.18
28267;BME280;15525;45.568;5.448;2023-08-06T08:08:26;98169.50;;;21.80;45.22
28267;BME280;15525;45.568;5.448;2023-08-06T08:10:52;98175.72;;;21.80;44.48
28267;BME280;15525;45.568;5.448;2023-08-06T08:13:17;98167.22;;;21.82;44.38
28267;BME280;15525;45.568;5.448;2023-08-06T08:15:43;98157.94;;;21.62;44.10
28267;BME280;15525;45.568;5.448;2023-08-06T08:18:08;98171.41;;;21.47;44.25
28267;BME280;15525;45.568;5.448;2023-08-06T08:20:34;98177.03;;;21.62;44.66
28267;BME280;15525;45.568;5.448;2023-08-06T08:23:01;98184.06;;;22.44;43.80
28267;BME280;15525;45.568;5.448;2023-08-06T08:25:27;98189.13;;;21.85;43.27
28267;BME280;15525;45.568;5.448;2023-08-06T08:27:54;98184.50;;;22.82;43.11
28267;BME280;15525;45.568;5.448;2023-08-06T08:30:19;98191.47;;;23.07;42.46
28267;BME280;15525;45.568;5.448;2023-08-06T08:32:45;98193.03;;;22.08;44.01
28267;BME280;15525;45.568;5.448;2023-08-06T08:35:10;98188.28;;;22.29;44.31
28267;BME280;15525;45.568;5.448;2023-08-06T08:37:38;98198.00;;;21.50;44.83
28267;BME280;15525;45.568;5.448;2023-08-06T08:40:05;98218.91;;;21.58;45.38
28267;BME280;15525;45.568;5.448;2023-08-06T08:42:31;98201.59;;;22.55;43.19
28267;BME280;15525;45.568;5.448;2023-08-06T08:44:57;98210.38;;;23.67;40.86
28267;BME280;15525;45.568;5.448;2023-08-06T08:47:24;98202.59;;;22.74;41.78
28267;BME280;15525;45.568;5.448;2023-08-06T08:49:54;98188.16;;;22.62;42.57
28267;BME280;15525;45.568;5.448;2023-08-06T08:52:21;98215.94;;;23.15;41.63
28267;BME280;15525;45.568;5.448;2023-08-06T08:54:48;98213.66;;;22.54;43.07
28267;BME280;15525;45.568;5.448;2023-08-06T08:57:17;98225.56;;;22.49;45.09
28267;BME280;15525;45.568;5.448;2023-08-06T08:59:42;98229.94;;;21.94;45.91
28267;BME280;15525;45.568;5.448;2023-08-06T09:02:10;98255.56;;;21.28;48.23
28267;BME280;15525;45.568;5.448;2023-08-06T09:04:36;98219.13;;;21.53;48.62
28267;BME280;15525;45.568;5.448;2023-08-06T09:07:04;98228.41;;;21.72;48.13
28267;BME280;15525;45.568;5.448;2023-08-06T09:09:34;98239.09;;;22.22;46.69
28267;BME280;15525;45.568;5.448;2023-08-06T09:12:07;98242.03;;;22.89;45.77
28267;BME280;15525;45.568;5.448;2023-08-06T09:14:36;98247.19;;;22.66;45.63
28267;BME280;15525;45.568;5.448;2023-08-06T09:17:02;98230.44;;;22.32;45.80
28267;BME280;15525;45.568;5.448;2023-08-06T09:19:27;98231.72;;;21.57;46.67
28267;BME280;15525;45.568;5.448;2023-08-06T09:21:55;98240.56;;;21.22;47.58
28267;BME280;15525;45.568;5.448;2023-08-06T09:24:20;98229.84;;;21.37;48.28
28267;BME280;15525;45.568;5.448;2023-08-06T09:26:47;98219.78;;;21.50;46.74
28267;BME280;15525;45.568;5.448;2023-08-06T09:29:12;98220.16;;;21.93;46.64
28267;BME280;15525;45.568;5.448;2023-08-06T09:31:48;98247.25;;;22.22;45.38
28267;BME280;15525;45.568;5.448;2023-08-06T09:34:19;98218.25;;;21.40;45.55
28267;BME280;15525;45.568;5.448;2023-08-06T09:36:49;98242.16;;;21.76;45.06
28267;BME280;15525;45.568;5.448;2023-08-06T09:39:19;98240.78;;;22.38;45.23
28267;BME280;15525;45.568;5.448;2023-08-06T09:41:45;98256.34;;;23.22;44.06
28267;BME280;15525;45.568;5.448;2023-08-06T09:44:19;98246.47;;;23.72;43.08
28267;BME280;15525;45.568;5.448;2023-08-06T09:46:48;98258.66;;;23.47;42.14
28267;BME280;15525;45.568;5.448;2023-08-06T09:49:15;98234.94;;;23.24;42.46
28267;BME280;15525;45.568;5.448;2023-08-06T09:51:41;98228.63;;;23.63;42.00
28267;BME280;15525;45.568;5.448;2023-08-06T09:54:07;98256.34;;;22.98;41.66
28267;BME280;15525;45.568;5.448;2023-08-06T09:56:36;98213.22;;;23.43;42.30
28267;BME280;15525;45.568;5.448;2023-08-06T09:59:04;98242.91;;;23.56;41.11
28267;BME280;15525;45.568;5.448;2023-08-06T10:01:33;98233.59;;;23.73;41.21
28267;BME280;15525;45.568;5.448;2023-08-06T10:04:00;98251.16;;;24.15;40.32
28267;BME280;15525;45.568;5.448;2023-08-06T10:06:28;98219.91;;;24.16;39.98
28267;BME280;15525;45.568;5.448;2023-08-06T10:08:54;98228.47;;;24.45;39.67
28267;BME280;15525;45.568;5.448;2023-08-06T10:11:21;98227.75;;;24.33;39.74
28267;BME280;15525;45.568;5.448;2023-08-06T10:13:50;98213.53;;;24.12;39.23
28267;BME280;15525;45.568;5.448;2023-08-06T10:16:18;98208.75;;;23.50;40.41
28267;BME280;15525;45.568;5.448;2023-08-06T10:18:43;98238.09;;;22.74;42.76
28267;BME280;15525;45.568;5.448;2023-08-06T10:21:09;98259.47;;;21.92;45.70
28267;BME280;15525;45.568;5.448;2023-08-06T10:23:36;98262.09;;;22.69;46.67
28267;BME280;15525;45.568;5.448;2023-08-06T10:26:03;98250.44;;;22.96;45.13
28267;BME280;15525;45.568;5.448;2023-08-06T10:28:37;98246.84;;;23.31;45.09
28267;BME280;15525;45.568;5.448;2023-08-06T10:31:03;98251.53;;;23.31;43.16
28267;BME280;15525;45.568;5.448;2023-08-06T10:33:45;98251.84;;;22.90;44.52
28267;BME280;15525;45.568;5.448;2023-08-06T10:36:11;98254.31;;;23.19;43.96
28267;BME280;15525;45.568;5.448;2023-08-06T10:38:47;98252.88;;;23.64;43.91
28267;BME280;15525;45.568;5.448;2023-08-06T10:41:28;98259.97;;;24.24;43.15
28267;BME280;15525;45.568;5.448;2023-08-06T10:44:07;98252.63;;;24.90;42.79
28267;BME280;15525;45.568;5.448;2023-08-06T10:46:33;98247.88;;;24.87;40.78
28267;BME280;15525;45.568;5.448;2023-08-06T10:48:59;98250.13;;;25.35;40.36
28267;BME280;15525;45.568;5.448;2023-08-06T10:51:25;98247.00;;;24.83;38.27
28267;BME280;15525;45.568;5.448;2023-08-06T10:53:51;98260.56;;;24.02;40.50
28267;BME280;15525;45.568;5.448;2023-08-06T10:56:18;98255.44;;;24.00;39.67
28267;BME280;15525;45.568;5.448;2023-08-06T10:58:47;98250.28;;;24.26;40.17
28267;BME280;15525;45.568;5.448;2023-08-06T11:01:12;98250.25;;;23.95;40.76
28267;BME280;15525;45.568;5.448;2023-08-06T11:03:39;98244.63;;;24.04;40.71
28267;BME280;15525;45.568;5.448;2023-08-06T11:06:07;98223.78;;;24.15;40.13
28267;BME280;15525;45.568;5.448;2023-08-06T11:08:36;98225.22;;;24.90;38.63
28267;BME280;15525;45.568;5.448;2023-08-06T11:11:13;98238.56;;;24.91;38.45
28267;BME280;15525;45.568;5.448;2023-08-06T11:13:42;98215.34;;;23.77;39.35
28267;BME280;15525;45.568;5.448;2023-08-06T11:16:09;98236.59;;;23.68;40.45
28267;BME280;15525;45.568;5.448;2023-08-06T11:18:35;98225.44;;;23.61;39.97
28267;BME280;15525;45.568;5.448;2023-08-06T11:21:01;98232.19;;;22.60;41.13
28267;BME280;15525;45.568;5.448;2023-08-06T11:23:27;98245.69;;;22.69;41.61
28267;BME280;15525;45.568;5.448;2023-08-06T11:25:54;98251.03;;;23.01;41.14
28267;BME280;15525;45.568;5.448;2023-08-06T11:28:20;98241.72;;;23.30;41.19
28267;BME280;15525;45.568;5.448;2023-08-06T11:30:47;98223.22;;;23.51;40.79
28267;BME280;15525;45.568;5.448;2023-08-06T11:33:12;98231.38;;;23.63;40.63
28267;BME280;15525;45.568;5.448;2023-08-06T11:35:38;98233.72;;;24.54;39.20
28267;BME280;15525;45.568;5.448;2023-08-06T11:38:05;98211.06;;;24.22;38.41
28267;BME280;15525;45.568;5.448;2023-08-06T11:40:31;98208.59;;;24.02;37.88
28267;BME280;15525;45.568;5.448;2023-08-06T11:42:57;98229.06;;;24.08;38.93
28267;BME280;15525;45.568;5.448;2023-08-06T11:45:26;98213.13;;;23.39;39.97
28267;BME280;15525;45.568;5.448;2023-08-06T11:47:52;98231.94;;;23.84;39.49
28267;BME280;15525;45.568;5.448;2023-08-06T11:50:25;98242.31;;;23.78;39.14
28267;BME280;15525;45.568;5.448;2023-08-06T11:52:56;98243.03;;;23.75;39.70
28267;BME280;15525;45.568;5.448;2023-08-06T11:55:24;98244.38;;;23.81;39.95
28267;BME280;15525;45.568;5.448;2023-08-06T11:57:50;98221.84;;;24.00;39.94
28267;BME280;15525;45.568;5.448;2023-08-06T12:00:15;98235.09;;;24.60;39.82
28267;BME280;15525;45.568;5.448;2023-08-06T12:02:44;98238.72;;;24.64;40.05
28267;BME280;15525;45.568;5.448;2023-08-06T12:05:11;98246.38;;;24.74;38.59
28267;BME280;15525;45.568;5.448;2023-08-06T12:07:38;98237.88;;;25.13;39.05
28267;BME280;15525;45.568;5.448;2023-08-06T12:10:05;98231.22;;;25.30;38.40
28267;BME280;15525;45.568;5.448;2023-08-06T12:12:31;98241.19;;;25.38;37.47
28267;BME280;15525;45.568;5.448;2023-08-06T12:14:56;98240.47;;;25.41;37.26
28267;BME280;15525;45.568;5.448;2023-08-06T12:17:25;98215.75;;;25.22;39.06
28267;BME280;15525;45.568;5.448;2023-08-06T12:19:51;98240.47;;;25.60;39.12
28267;BME280;15525;45.568;5.448;2023-08-06T12:22:17;98225.97;;;24.87;38.43
28267;BME280;15525;45.568;5.448;2023-08-06T12:24:43;98218.38;;;23.60;39.78
28267;BME280;15525;45.568;5.448;2023-08-06T12:27:09;98227.81;;;23.90;39.89
28267;BME280;15525;45.568;5.448;2023-08-06T12:29:36;98242.69;;;24.51;40.39
28267;BME280;15525;45.568;5.448;2023-08-06T12:32:03;98240.69;;;25.17;39.27
28267;BME280;15525;45.568;5.448;2023-08-06T12:34:28;98231.59;;;25.13;37.94
28267;BME280;15525;45.568;5.448;2023-08-06T12:36:54;98225.19;;;25.05;37.91
28267;BME280;15525;45.568;5.448;2023-08-06T12:39:19;98221.78;;;24.93;37.89
28267;BME280;15525;45.568;5.448;2023-08-06T12:41:45;98244.50;;;25.28;38.72
28267;BME280;15525;45.568;5.448;2023-08-06T12:44:12;98223.25;;;25.25;36.97
28267;BME280;15525;45.568;5.448;2023-08-06T12:46:37;98213.97;;;25.90;37.60
28267;BME280;15525;45.568;5.448;2023-08-06T12:49:02;98217.19;;;25.16;37.38
28267;BME280;15525;45.568;5.448;2023-08-06T12:51:28;98223.25;;;25.06;37.14
28267;BME280;15525;45.568;5.448;2023-08-06T12:53:54;98241.69;;;25.62;37.71
28267;BME280;15525;45.568;5.448;2023-08-06T12:56:19;98240.16;;;25.27;36.46
28267;BME280;15525;45.568;5.448;2023-08-06T12:58:44;98223.53;;;24.35;37.83
28267;BME280;15525;45.568;5.448;2023-08-06T13:01:10;98197.97;;;24.78;38.50
28267;BME280;15525;45.568;5.448;2023-08-06T13:03:35;98203.78;;;25.68;38.02